sensor_id;sensor_type;location;lat;lon;timestamp;P1;durP1;ratioP1;P2;durP2;ratioP2
10497;SDS011;5296;51.060;13.750;2022-11-20T00:03:24;17.70;;;12.93;;
10497;SDS011;5296;51.060;13.750;2022-11-20T00:08:26;19.07;;;13.13;;
10497;SDS011;5296;51.060;13.750;2022-11-20T00:13:27;18.20;;;12.93;;
10497;SDS011;5296;51.060;13.750;2022-11-20T00:18:29;16.47;;;12.57;;
10497;SDS011;5296;51.060;13.750;2022-11-20T00:23:31;17.03;;;13.27;;
10497;SDS011;5296;51.060;13.750;2022-11-20T00:28:33;23.03;;;13.83;;
10497;SDS011;5296;51.060;13.750;2022-11-20T00:33:35;18.50;;;13.17;;
10497;SDS011;5296;51.060;13.750;2022-11-20T00:38:37;19.40;;;12.67;;
10497;SDS011;5296;51.060;13.750;2022-11-20T00:43:39;15.83;;;12.27;;
10497;SDS011;5296;51.060;13.750;2022-11-20T00:48:41;17.57;;;12.30;;
10497;SDS011;5296;51.060;13.750;2022-11-20T00:53:43;16.57;;;12.23;;
10497;SDS011;5296;51.060;13.750;2022-11-20T00:58:46;18.07;;;12.73;;
10497;SDS011;5296;51.060;13.750;2022-11-20T01:03:48;18.43;;;12.40;;
10497;SDS011;5296;51.060;13.750;2022-11-20T01:08:52;20.37;;;12.87;;
10497;SDS011;5296;51.060;13.750;2022-11-20T01:13:55;17.03;;;12.47;;
10497;SDS011;5296;51.060;13.750;2022-11-20T01:18:58;18.20;;;12.33;;
10497;SDS011;5296;51.060;13.750;2022-11-20T01:24:01;16.43;;;12.37;;
10497;SDS011;5296;51.060;13.750;2022-11-20T01:29:04;18.33;;;12.97;;
10497;SDS011;5296;51.060;13.750;2022-11-20T01:34:07;18.07;;;12.50;;
10497;SDS011;5296;51.060;13.750;2022-11-20T01:39:15;18.70;;;12.43;;
10497;SDS011;5296;51.060;13.750;2022-11-20T01:44:39;19.80;;;13.77;;
10497;SDS011;5296;51.060;13.750;2022-11-20T01:49:50;18.00;;;13.13;;
10497;SDS011;5296;51.060;13.750;2022-11-20T01:54:56;20.40;;;12.83;;
10497;SDS011;5296;51.060;13.750;2022-11-20T02:00:11;17.60;;;11.63;;
10497;SDS011;5296;51.060;13.750;2022-11-20T02:05:23;17.40;;;11.43;;
10497;SDS011;5296;51.060;13.750;2022-11-20T02:10:28;15.83;;;11.20;;
10497;SDS011;5296;51.060;13.750;2022-11-20T02:15:32;17.33;;;11.40;;
10497;SDS011;5296;51.060;13.750;2022-11-20T02:20:34;15.60;;;11.27;;
10497;SDS011;5296;51.060;13.750;2022-11-20T02:25:35;17.57;;;11.13;;
10497;SDS011;5296;51.060;13.750;2022-11-20T02:30:38;16.63;;;11.20;;
10497;SDS011;5296;51.060;13.750;2022-11-20T02:35:40;15.90;;;10.93;;
10497;SDS011;5296;51.060;13.750;2022-11-20T02:40:44;15.33;;;10.77;;
10497;SDS011;5296;51.060;13.750;2022-11-20T02:45:46;16.53;;;11.30;;
10497;SDS011;5296;51.060;13.750;2022-11-20T02:50:47;16.97;;;11.50;;
10497;SDS011;5296;51.060;13.750;2022-11-20T02:55:49;16.43;;;11.00;;
10497;SDS011;5296;51.060;13.750;2022-11-20T03:00:51;18.73;;;12.13;;
10497;SDS011;5296;51.060;13.750;2022-11-20T03:05:53;17.80;;;12.67;;
10497;SDS011;5296;51.060;13.750;2022-11-20T03:10:55;16.23;;;11.03;;
10497;SDS011;5296;51.060;13.750;2022-11-20T03:15:56;15.10;;;11.63;;
10497;SDS011;5296;51.060;13.750;2022-11-20T03:20:58;14.73;;;11.30;;
10497;SDS011;5296;51.060;13.750;2022-11-20T03:26:07;17.20;;;11.40;;
10497;SDS011;5296;51.060;13.750;2022-11-20T03:31:11;16.30;;;11.60;;
10497;SDS011;5296;51.060;13.750;2022-11-20T03:36:14;15.33;;;11.67;;
10497;SDS011;5296;51.060;13.750;2022-11-20T03:41:20;16.33;;;11.07;;
10497;SDS011;5296;51.060;13.750;2022-11-20T03:46:23;17.53;;;11.50;;
10497;SDS011;5296;51.060;13.750;2022-11-20T03:51:26;14.00;;;10.60;;
10497;SDS011;5296;51.060;13.750;2022-11-20T03:56:30;13.97;;;10.50;;
10497;SDS011;5296;51.060;13.750;2022-11-20T04:01:34;15.00;;;10.47;;
10497;SDS011;5296;51.060;13.750;2022-11-20T04:06:37;14.30;;;9.77;;
10497;SDS011;5296;51.060;13.750;2022-11-20T04:11:39;15.50;;;10.30;;
10497;SDS011;5296;51.060;13.750;2022-11-20T04:16:42;13.03;;;9.50;;
10497;SDS011;5296;51.060;13.750;2022-11-20T04:21:44;15.53;;;9.77;;
10497;SDS011;5296;51.060;13.750;2022-11-20T04:26:45;18.13;;;10.27;;
10497;SDS011;5296;51.060;13.750;2022-11-20T04:31:47;13.30;;;9.30;;
10497;SDS011;5296;51.060;13.750;2022-11-20T04:36:49;13.47;;;9.60;;
10497;SDS011;5296;51.060;13.750;2022-11-20T04:41:50;18.20;;;10.37;;
10497;SDS011;5296;51.060;13.750;2022-11-20T04:47:12;17.93;;;11.13;;
10497;SDS011;5296;51.060;13.750;2022-11-20T04:52:14;14.77;;;10.70;;
10497;SDS011;5296;51.060;13.750;2022-11-20T04:57:15;16.03;;;10.43;;
10497;SDS011;5296;51.060;13.750;2022-11-20T05:02:17;16.50;;;12.07;;
10497;SDS011;5296;51.060;13.750;2022-11-20T05:07:18;16.13;;;11.03;;
10497;SDS011;5296;51.060;13.750;2022-11-20T05:12:20;17.57;;;12.13;;
10497;SDS011;5296;51.060;13.750;2022-11-20T05:17:22;18.20;;;11.97;;
10497;SDS011;5296;51.060;13.750;2022-11-20T05:22:23;16.40;;;12.23;;
10497;SDS011;5296;51.060;13.750;2022-11-20T05:27:25;19.07;;;11.57;;
10497;SDS011;5296;51.060;13.750;2022-11-20T05:32:26;17.83;;;11.63;;
10497;SDS011;5296;51.060;13.750;2022-11-20T05:37:28;17.97;;;11.83;;
10497;SDS011;5296;51.060;13.750;2022-11-20T05:42:30;16.57;;;11.17;;
10497;SDS011;5296;51.060;13.750;2022-11-20T05:47:33;18.33;;;11.90;;
10497;SDS011;5296;51.060;13.750;2022-11-20T05:52:36;17.13;;;11.60;;
10497;SDS011;5296;51.060;13.750;2022-11-20T05:57:37;17.87;;;11.27;;
10497;SDS011;5296;51.060;13.750;2022-11-20T06:02:39;14.43;;;10.13;;
10497;SDS011;5296;51.060;13.750;2022-11-20T06:07:40;16.27;;;10.10;;
10497;SDS011;5296;51.060;13.750;2022-11-20T06:12:42;13.57;;;9.53;;
10497;SDS011;5296;51.060;13.750;2022-11-20T06:17:43;12.50;;;9.20;;
10497;SDS011;5296;51.060;13.750;2022-11-20T06:22:45;14.50;;;9.57;;
10497;SDS011;5296;51.060;13.750;2022-11-20T06:27:47;12.80;;;9.13;;
10497;SDS011;5296;51.060;13.750;2022-11-20T06:32:48;14.60;;;9.60;;
10497;SDS011;5296;51.060;13.750;2022-11-20T06:37:50;13.43;;;8.93;;
10497;SDS011;5296;51.060;13.750;2022-11-20T06:42:53;13.60;;;9.20;;
10497;SDS011;5296;51.060;13.750;2022-11-20T06:47:56;13.93;;;9.53;;
10497;SDS011;5296;51.060;13.750;2022-11-20T06:53:02;13.50;;;9.33;;
10497;SDS011;5296;51.060;13.750;2022-11-20T06:58:04;16.90;;;10.77;;
10497;SDS011;5296;51.060;13.750;2022-11-20T07:03:06;14.23;;;9.50;;
10497;SDS011;5296;51.060;13.750;2022-11-20T07:08:08;16.53;;;10.63;;
10497;SDS011;5296;51.060;13.750;2022-11-20T07:13:10;17.03;;;11.40;;
10497;SDS011;5296;51.060;13.750;2022-11-20T07:18:12;17.70;;;11.10;;
10497;SDS011;5296;51.060;13.750;2022-11-20T07:23:13;21.83;;;12.20;;
10497;SDS011;5296;51.060;13.750;2022-11-20T07:28:15;16.07;;;11.07;;
10497;SDS011;5296;51.060;13.750;2022-11-20T07:33:16;17.43;;;12.10;;
10497;SDS011;5296;51.060;13.750;2022-11-20T07:38:18;20.40;;;12.33;;
10497;SDS011;5296;51.060;13.750;2022-11-20T07:43:19;17.57;;;12.53;;
10497;SDS011;5296;51.060;13.750;2022-11-20T07:48:21;21.40;;;13.70;;
10497;SDS011;5296;51.060;13.750;2022-11-20T07:53:23;18.83;;;12.53;;
10497;SDS011;5296;51.060;13.750;2022-11-20T07:58:25;21.07;;;13.83;;
10497;SDS011;5296;51.060;13.750;2022-11-20T08:03:26;18.33;;;12.87;;
10497;SDS011;5296;51.060;13.750;2022-11-20T08:08:28;23.13;;;13.33;;
10497;SDS011;5296;51.060;13.750;2022-11-20T08:13:33;19.23;;;13.47;;
10497;SDS011;5296;51.060;13.750;2022-11-20T08:18:54;20.37;;;14.00;;
10497;SDS011;5296;51.060;13.750;2022-11-20T08:23:56;22.20;;;14.30;;
10497;SDS011;5296;51.060;13.750;2022-11-20T08:28:58;22.90;;;15.57;;
10497;SDS011;5296;51.060;13.750;2022-11-20T08:34:00;24.87;;;15.87;;
10497;SDS011;5296;51.060;13.750;2022-11-20T08:39:10;27.47;;;15.77;;
10497;SDS011;5296;51.060;13.750;2022-11-20T08:44:13;24.40;;;14.90;;
10497;SDS011;5296;51.060;13.750;2022-11-20T08:49:14;24.10;;;15.70;;
10497;SDS011;5296;51.060;13.750;2022-11-20T08:54:16;23.63;;;14.87;;
10497;SDS011;5296;51.060;13.750;2022-11-20T08:59:20;22.23;;;14.90;;
10497;SDS011;5296;51.060;13.750;2022-11-20T09:04:42;22.93;;;14.23;;
10497;SDS011;5296;51.060;13.750;2022-11-20T09:09:44;23.73;;;15.00;;
10497;SDS011;5296;51.060;13.750;2022-11-20T09:14:46;21.67;;;14.33;;
10497;SDS011;5296;51.060;13.750;2022-11-20T09:19:55;21.33;;;14.83;;
10497;SDS011;5296;51.060;13.750;2022-11-20T09:24:56;19.97;;;14.07;;
10497;SDS011;5296;51.060;13.750;2022-11-20T09:29:58;20.57;;;14.10;;
10497;SDS011;5296;51.060;13.750;2022-11-20T09:34:59;20.47;;;14.20;;
10497;SDS011;5296;51.060;13.750;2022-11-20T09:40:06;19.07;;;13.40;;
10497;SDS011;5296;51.060;13.750;2022-11-20T09:45:24;18.17;;;13.13;;
10497;SDS011;5296;51.060;13.750;2022-11-20T09:55:52;17.73;;;11.97;;
10497;SDS011;5296;51.060;13.750;2022-11-20T10:00:53;20.97;;;12.87;;
10497;SDS011;5296;51.060;13.750;2022-11-20T10:05:58;17.10;;;12.10;;
10497;SDS011;5296;51.060;13.750;2022-11-20T10:11:04;20.00;;;13.27;;
10497;SDS011;5296;51.060;13.750;2022-11-20T10:21:21;15.00;;;11.40;;
10497;SDS011;5296;51.060;13.750;2022-11-20T10:26:31;16.07;;;11.23;;
10497;SDS011;5296;51.060;13.750;2022-11-20T10:31:38;15.10;;;10.53;;
10497;SDS011;5296;51.060;13.750;2022-11-20T10:36:46;14.63;;;10.87;;
10497;SDS011;5296;51.060;13.750;2022-11-20T10:41:51;13.67;;;9.60;;
10497;SDS011;5296;51.060;13.750;2022-11-20T10:46:54;13.43;;;8.90;;
10497;SDS011;5296;51.060;13.750;2022-11-20T11:03:07;12.63;;;9.33;;
10497;SDS011;5296;51.060;13.750;2022-11-20T11:08:21;13.97;;;9.70;;
10497;SDS011;5296;51.060;13.750;2022-11-20T11:13:34;12.37;;;8.50;;
10497;SDS011;5296;51.060;13.750;2022-11-20T11:18:36;14.30;;;9.20;;
10497;SDS011;5296;51.060;13.750;2022-11-20T11:23:38;11.67;;;8.30;;
10497;SDS011;5296;51.060;13.750;2022-11-20T11:28:41;11.23;;;8.50;;
10497;SDS011;5296;51.060;13.750;2022-11-20T11:33:42;12.53;;;8.73;;
10497;SDS011;5296;51.060;13.750;2022-11-20T11:38:44;11.17;;;7.93;;
10497;SDS011;5296;51.060;13.750;2022-11-20T11:43:55;10.93;;;7.77;;
10497;SDS011;5296;51.060;13.750;2022-11-20T11:49:18;7.73;;;6.00;;
10497;SDS011;5296;51.060;13.750;2022-11-20T11:54:24;8.33;;;5.97;;
10497;SDS011;5296;51.060;13.750;2022-11-20T11:59:44;7.73;;;6.23;;
10497;SDS011;5296;51.060;13.750;2022-11-20T12:04:54;8.37;;;6.40;;
10497;SDS011;5296;51.060;13.750;2022-11-20T12:10:00;7.53;;;5.87;;
10497;SDS011;5296;51.060;13.750;2022-11-20T12:15:03;10.37;;;6.47;;
10497;SDS011;5296;51.060;13.750;2022-11-20T12:20:11;8.33;;;6.00;;
10497;SDS011;5296;51.060;13.750;2022-11-20T12:30:23;8.00;;;6.27;;
10497;SDS011;5296;51.060;13.750;2022-11-20T13:07:24;7.97;;;6.13;;
10497;SDS011;5296;51.060;13.750;2022-11-20T13:12:43;8.73;;;6.27;;
10497;SDS011;5296;51.060;13.750;2022-11-20T13:17:48;8.37;;;6.10;;
10497;SDS011;5296;51.060;13.750;2022-11-20T13:22:56;8.67;;;6.40;;
10497;SDS011;5296;51.060;13.750;2022-11-20T13:28:03;6.67;;;5.57;;
10497;SDS011;5296;51.060;13.750;2022-11-20T13:33:07;5.93;;;4.97;;
10497;SDS011;5296;51.060;13.750;2022-11-20T13:48:40;6.40;;;5.20;;
10497;SDS011;5296;51.060;13.750;2022-11-20T13:53:47;6.20;;;4.97;;
10497;SDS011;5296;51.060;13.750;2022-11-20T14:04:17;5.87;;;5.00;;
10497;SDS011;5296;51.060;13.750;2022-11-20T14:09:30;6.63;;;5.30;;
10497;SDS011;5296;51.060;13.750;2022-11-20T14:14:33;6.27;;;5.43;;
10497;SDS011;5296;51.060;13.750;2022-11-20T14:19:35;6.83;;;5.47;;
10497;SDS011;5296;51.060;13.750;2022-11-20T14:24:38;7.40;;;5.93;;
10497;SDS011;5296;51.060;13.750;2022-11-20T14:29:39;8.03;;;6.07;;
10497;SDS011;5296;51.060;13.750;2022-11-20T14:34:43;7.83;;;6.17;;
10497;SDS011;5296;51.060;13.750;2022-11-20T14:39:50;6.77;;;5.83;;
10497;SDS011;5296;51.060;13.750;2022-11-20T14:44:56;8.33;;;6.77;;
10497;SDS011;5296;51.060;13.750;2022-11-20T14:49:59;7.80;;;6.30;;
10497;SDS011;5296;51.060;13.750;2022-11-20T14:55:07;8.20;;;6.43;;
10497;SDS011;5296;51.060;13.750;2022-11-20T15:05:11;7.90;;;5.97;;
10497;SDS011;5296;51.060;13.750;2022-11-20T15:10:47;8.07;;;6.60;;
10497;SDS011;5296;51.060;13.750;2022-11-20T15:15:47;8.90;;;6.97;;
10497;SDS011;5296;51.060;13.750;2022-11-20T15:20:51;8.07;;;6.37;;
10497;SDS011;5296;51.060;13.750;2022-11-20T15:25:53;9.60;;;7.17;;
10497;SDS011;5296;51.060;13.750;2022-11-20T15:30:54;8.90;;;7.43;;
10497;SDS011;5296;51.060;13.750;2022-11-20T15:35:57;10.47;;;6.93;;
10497;SDS011;5296;51.060;13.750;2022-11-20T15:40:59;9.07;;;6.27;;
10497;SDS011;5296;51.060;13.750;2022-11-20T15:46:02;9.20;;;7.00;;
10497;SDS011;5296;51.060;13.750;2022-11-20T15:56:12;9.67;;;7.47;;
10497;SDS011;5296;51.060;13.750;2022-11-20T16:01:16;9.83;;;7.67;;
10497;SDS011;5296;51.060;13.750;2022-11-20T16:06:19;9.50;;;7.47;;
10497;SDS011;5296;51.060;13.750;2022-11-20T16:11:20;9.77;;;7.83;;
10497;SDS011;5296;51.060;13.750;2022-11-20T16:16:23;11.23;;;8.00;;
10497;SDS011;5296;51.060;13.750;2022-11-20T16:21:29;11.73;;;8.60;;
10497;SDS011;5296;51.060;13.750;2022-11-20T16:26:34;12.17;;;9.67;;
10497;SDS011;5296;51.060;13.750;2022-11-20T16:31:36;12.33;;;8.80;;
10497;SDS011;5296;51.060;13.750;2022-11-20T16:36:41;12.70;;;8.87;;
10497;SDS011;5296;51.060;13.750;2022-11-20T16:41:43;11.60;;;9.00;;
10497;SDS011;5296;51.060;13.750;2022-11-20T16:46:45;11.70;;;8.77;;
10497;SDS011;5296;51.060;13.750;2022-11-20T16:51:46;11.00;;;8.70;;
10497;SDS011;5296;51.060;13.750;2022-11-20T16:56:48;12.03;;;9.37;;
10497;SDS011;5296;51.060;13.750;2022-11-20T17:01:52;11.50;;;8.67;;
10497;SDS011;5296;51.060;13.750;2022-11-20T17:06:53;13.73;;;9.87;;
10497;SDS011;5296;51.060;13.750;2022-11-20T17:11:55;16.10;;;10.57;;
10497;SDS011;5296;51.060;13.750;2022-11-20T17:16:56;14.50;;;10.07;;
10497;SDS011;5296;51.060;13.750;2022-11-20T17:21:59;14.23;;;9.70;;
10497;SDS011;5296;51.060;13.750;2022-11-20T17:27:01;14.67;;;10.50;;
10497;SDS011;5296;51.060;13.750;2022-11-20T17:32:02;13.63;;;10.50;;
10497;SDS011;5296;51.060;13.750;2022-11-20T17:37:04;14.63;;;10.63;;
10497;SDS011;5296;51.060;13.750;2022-11-20T17:42:05;13.33;;;10.00;;
10497;SDS011;5296;51.060;13.750;2022-11-20T17:47:25;16.20;;;9.83;;
10497;SDS011;5296;51.060;13.750;2022-11-20T17:52:27;13.27;;;9.97;;
10497;SDS011;5296;51.060;13.750;2022-11-20T17:57:28;12.73;;;9.07;;
10497;SDS011;5296;51.060;13.750;2022-11-20T18:02:49;12.47;;;9.47;;
10497;SDS011;5296;51.060;13.750;2022-11-20T18:07:51;11.87;;;10.07;;
10497;SDS011;5296;51.060;13.750;2022-11-20T18:12:53;12.63;;;8.83;;
10497;SDS011;5296;51.060;13.750;2022-11-20T18:17:55;14.00;;;9.93;;
10497;SDS011;5296;51.060;13.750;2022-11-20T18:22:57;10.97;;;8.97;;
10497;SDS011;5296;51.060;13.750;2022-11-20T18:27:58;13.70;;;10.17;;
10497;SDS011;5296;51.060;13.750;2022-11-20T18:33:00;12.70;;;9.83;;
10497;SDS011;5296;51.060;13.750;2022-11-20T18:38:01;14.10;;;10.13;;
10497;SDS011;5296;51.060;13.750;2022-11-20T18:43:03;14.63;;;11.03;;
10497;SDS011;5296;51.060;13.750;2022-11-20T18:48:23;13.20;;;8.93;;
10497;SDS011;5296;51.060;13.750;2022-11-20T18:53:25;12.40;;;9.20;;
10497;SDS011;5296;51.060;13.750;2022-11-20T18:58:27;13.10;;;9.60;;
10497;SDS011;5296;51.060;13.750;2022-11-20T19:03:28;14.13;;;9.70;;
10497;SDS011;5296;51.060;13.750;2022-11-20T19:08:32;12.47;;;9.43;;
10497;SDS011;5296;51.060;13.750;2022-11-20T19:13:35;14.33;;;9.77;;
10497;SDS011;5296;51.060;13.750;2022-11-20T19:18:37;13.13;;;9.80;;
10497;SDS011;5296;51.060;13.750;2022-11-20T19:23:39;13.23;;;9.70;;
10497;SDS011;5296;51.060;13.750;2022-11-20T19:28:40;13.90;;;10.67;;
10497;SDS011;5296;51.060;13.750;2022-11-20T19:33:42;13.57;;;10.10;;
10497;SDS011;5296;51.060;13.750;2022-11-20T19:38:46;13.63;;;10.23;;
10497;SDS011;5296;51.060;13.750;2022-11-20T19:43:50;16.50;;;11.63;;
10497;SDS011;5296;51.060;13.750;2022-11-20T19:48:52;18.37;;;11.90;;
10497;SDS011;5296;51.060;13.750;2022-11-20T19:53:54;17.80;;;13.03;;
10497;SDS011;5296;51.060;13.750;2022-11-20T19:58:57;15.93;;;11.93;;
10497;SDS011;5296;51.060;13.750;2022-11-20T20:03:59;16.67;;;13.07;;
10497;SDS011;5296;51.060;13.750;2022-11-20T20:09:09;17.27;;;12.30;;
10497;SDS011;5296;51.060;13.750;2022-11-20T20:14:13;17.97;;;13.27;;
10497;SDS011;5296;51.060;13.750;2022-11-20T20:19:15;16.77;;;12.13;;
10497;SDS011;5296;51.060;13.750;2022-11-20T20:24:17;15.80;;;11.13;;
10497;SDS011;5296;51.060;13.750;2022-11-20T20:29:19;17.70;;;13.03;;
10497;SDS011;5296;51.060;13.750;2022-11-20T20:34:23;17.67;;;12.63;;
10497;SDS011;5296;51.060;13.750;2022-11-20T20:39:29;17.53;;;12.53;;
10497;SDS011;5296;51.060;13.750;2022-11-20T20:44:31;18.17;;;12.73;;
10497;SDS011;5296;51.060;13.750;2022-11-20T20:49:51;20.77;;;13.47;;
10497;SDS011;5296;51.060;13.750;2022-11-20T20:54:53;18.50;;;12.90;;
10497;SDS011;5296;51.060;13.750;2022-11-20T20:59:55;18.93;;;12.90;;
10497;SDS011;5296;51.060;13.750;2022-11-20T21:04:56;18.10;;;13.17;;
10497;SDS011;5296;51.060;13.750;2022-11-20T21:09:59;18.77;;;12.80;;
10497;SDS011;5296;51.060;13.750;2022-11-20T21:15:01;19.77;;;13.07;;
10497;SDS011;5296;51.060;13.750;2022-11-20T21:20:02;18.53;;;13.07;;
10497;SDS011;5296;51.060;13.750;2022-11-20T21:25:24;18.87;;;13.03;;
10497;SDS011;5296;51.060;13.750;2022-11-20T21:30:26;19.23;;;13.20;;
10497;SDS011;5296;51.060;13.750;2022-11-20T21:35:28;19.57;;;13.20;;
10497;SDS011;5296;51.060;13.750;2022-11-20T21:40:29;18.97;;;13.30;;
10497;SDS011;5296;51.060;13.750;2022-11-20T21:45:31;17.53;;;12.43;;
10497;SDS011;5296;51.060;13.750;2022-11-20T21:50:33;19.43;;;13.43;;
10497;SDS011;5296;51.060;13.750;2022-11-20T21:55:35;22.10;;;13.40;;
10497;SDS011;5296;51.060;13.750;2022-11-20T22:00:36;20.37;;;12.83;;
10497;SDS011;5296;51.060;13.750;2022-11-20T22:05:38;19.83;;;13.37;;
10497;SDS011;5296;51.060;13.750;2022-11-20T22:10:39;19.83;;;13.23;;
10497;SDS011;5296;51.060;13.750;2022-11-20T22:15:41;20.47;;;13.97;;
10497;SDS011;5296;51.060;13.750;2022-11-20T22:21:07;19.43;;;13.80;;
10497;SDS011;5296;51.060;13.750;2022-11-20T22:26:12;20.73;;;13.57;;
10497;SDS011;5296;51.060;13.750;2022-11-20T22:31:15;20.73;;;13.83;;
10497;SDS011;5296;51.060;13.750;2022-11-20T22:36:19;20.63;;;13.93;;
10497;SDS011;5296;51.060;13.750;2022-11-20T22:41:22;21.63;;;13.73;;
10497;SDS011;5296;51.060;13.750;2022-11-20T22:46:28;23.50;;;15.10;;
10497;SDS011;5296;51.060;13.750;2022-11-20T22:51:32;23.67;;;14.60;;
10497;SDS011;5296;51.060;13.750;2022-11-20T22:56:35;23.53;;;15.10;;
10497;SDS011;5296;51.060;13.750;2022-11-20T23:01:37;23.07;;;15.23;;
10497;SDS011;5296;51.060;13.750;2022-11-20T23:06:39;21.97;;;14.77;;
10497;SDS011;5296;51.060;13.750;2022-11-20T23:11:40;24.70;;;16.23;;
10497;SDS011;5296;51.060;13.750;2022-11-20T23:16:42;25.27;;;16.03;;
10497;SDS011;5296;51.060;13.750;2022-11-20T23:21:44;25.37;;;17.07;;
10497;SDS011;5296;51.060;13.750;2022-11-20T23:26:45;26.23;;;16.70;;
10497;SDS011;5296;51.060;13.750;2022-11-20T23:31:48;27.27;;;17.90;;
10497;SDS011;5296;51.060;13.750;2022-11-20T23:36:49;29.50;;;18.43;;
10497;SDS011;5296;51.060;13.750;2022-11-20T23:41:51;26.77;;;18.03;;
10497;SDS011;5296;51.060;13.750;2022-11-20T23:46:52;27.57;;;18.43;;
10497;SDS011;5296;51.060;13.750;2022-11-20T23:51:54;30.70;;;19.20;;
10497;SDS011;5296;51.060;13.750;2022-11-20T23:56:56;34.77;;;19.77;;
